sensor_id;sensor_type;location;lat;lon;timestamp;P1;durP1;ratioP1;P2;durP2;ratioP2
2480;SDS011;57396;48.742;9.128;2022-12-19T00:01:36;49.23;;;25.80;;
2480;SDS011;57396;48.742;9.128;2022-12-19T00:04:04;49.10;;;26.30;;
2480;SDS011;57396;48.742;9.128;2022-12-19T00:06:32;55.37;;;28.23;;
2480;SDS011;57396;48.742;9.128;2022-12-19T00:08:57;52.03;;;28.03;;
2480;SDS011;57396;48.742;9.128;2022-12-19T00:11:24;49.50;;;26.83;;
2480;SDS011;57396;48.742;9.128;2022-12-19T00:13:50;56.33;;;28.30;;
2480;SDS011;57396;48.742;9.128;2022-12-19T00:16:17;55.70;;;27.57;;
2480;SDS011;57396;48.742;9.128;2022-12-19T00:18:46;60.50;;;28.40;;
2480;SDS011;57396;48.742;9.128;2022-12-19T00:21:13;53.90;;;26.40;;
2480;SDS011;57396;48.742;9.128;2022-12-19T00:23:40;53.03;;;27.80;;
2480;SDS011;57396;48.742;9.128;2022-12-19T00:26:06;50.53;;;26.67;;
2480;SDS011;57396;48.742;9.128;2022-12-19T00:28:32;52.47;;;26.93;;
2480;SDS011;57396;48.742;9.128;2022-12-19T00:31:01;53.10;;;27.00;;
2480;SDS011;57396;48.742;9.128;2022-12-19T00:33:27;51.10;;;26.40;;
2480;SDS011;57396;48.742;9.128;2022-12-19T00:35:59;52.70;;;27.33;;
2480;SDS011;57396;48.742;9.128;2022-12-19T00:38:29;53.30;;;25.57;;
2480;SDS011;57396;48.742;9.128;2022-12-19T00:40:55;59.23;;;28.97;;
2480;SDS011;57396;48.742;9.128;2022-12-19T00:43:33;48.73;;;26.60;;
2480;SDS011;57396;48.742;9.128;2022-12-19T00:46:01;51.50;;;26.47;;
2480;SDS011;57396;48.742;9.128;2022-12-19T00:48:30;50.50;;;25.83;;
2480;SDS011;57396;48.742;9.128;2022-12-19T00:50:59;50.63;;;26.47;;
2480;SDS011;57396;48.742;9.128;2022-12-19T00:53:26;49.30;;;25.80;;
2480;SDS011;57396;48.742;9.128;2022-12-19T00:55:51;49.00;;;25.77;;
2480;SDS011;57396;48.742;9.128;2022-12-19T00:58:17;46.80;;;24.60;;
2480;SDS011;57396;48.742;9.128;2022-12-19T01:00:42;51.17;;;26.27;;
2480;SDS011;57396;48.742;9.128;2022-12-19T01:03:07;52.90;;;27.27;;
2480;SDS011;57396;48.742;9.128;2022-12-19T01:05:33;53.10;;;26.47;;
2480;SDS011;57396;48.742;9.128;2022-12-19T01:07:58;54.10;;;27.00;;
2480;SDS011;57396;48.742;9.128;2022-12-19T01:10:24;50.93;;;26.87;;
2480;SDS011;57396;48.742;9.128;2022-12-19T01:12:49;52.63;;;26.37;;
2480;SDS011;57396;48.742;9.128;2022-12-19T01:15:16;47.10;;;24.97;;
2480;SDS011;57396;48.742;9.128;2022-12-19T01:17:44;55.07;;;27.40;;
2480;SDS011;57396;48.742;9.128;2022-12-19T01:20:11;52.10;;;27.20;;
2480;SDS011;57396;48.742;9.128;2022-12-19T01:22:38;55.03;;;26.70;;
2480;SDS011;57396;48.742;9.128;2022-12-19T01:25:03;48.67;;;25.57;;
2480;SDS011;57396;48.742;9.128;2022-12-19T01:27:29;49.10;;;25.63;;
2480;SDS011;57396;48.742;9.128;2022-12-19T01:29:55;48.00;;;24.67;;
2480;SDS011;57396;48.742;9.128;2022-12-19T01:32:20;51.93;;;26.63;;
2480;SDS011;57396;48.742;9.128;2022-12-19T01:34:47;56.73;;;25.73;;
2480;SDS011;57396;48.742;9.128;2022-12-19T01:37:12;49.40;;;25.47;;
2480;SDS011;57396;48.742;9.128;2022-12-19T01:39:41;51.93;;;26.57;;
2480;SDS011;57396;48.742;9.128;2022-12-19T01:42:13;56.70;;;27.47;;
2480;SDS011;57396;48.742;9.128;2022-12-19T01:47:47;55.30;;;25.63;;
2480;SDS011;57396;48.742;9.128;2022-12-19T01:50:19;52.40;;;27.17;;
2480;SDS011;57396;48.742;9.128;2022-12-19T01:53:07;52.50;;;26.67;;
2480;SDS011;57396;48.742;9.128;2022-12-19T01:55:34;50.97;;;26.17;;
2480;SDS011;57396;48.742;9.128;2022-12-19T01:58:01;56.10;;;27.20;;
2480;SDS011;57396;48.742;9.128;2022-12-19T02:00:26;55.43;;;26.37;;
2480;SDS011;57396;48.742;9.128;2022-12-19T02:02:59;59.83;;;27.50;;
2480;SDS011;57396;48.742;9.128;2022-12-19T02:05:29;56.50;;;26.97;;
2480;SDS011;57396;48.742;9.128;2022-12-19T02:07:56;54.13;;;27.43;;
2480;SDS011;57396;48.742;9.128;2022-12-19T02:10:21;54.27;;;27.17;;
2480;SDS011;57396;48.742;9.128;2022-12-19T02:12:47;48.60;;;26.10;;
2480;SDS011;57396;48.742;9.128;2022-12-19T02:15:12;52.83;;;26.60;;
2480;SDS011;57396;48.742;9.128;2022-12-19T02:23:50;51.37;;;25.83;;
2480;SDS011;57396;48.742;9.128;2022-12-19T02:31:47;51.53;;;27.23;;
2480;SDS011;57396;48.742;9.128;2022-12-19T02:37:12;52.80;;;27.10;;
2480;SDS011;57396;48.742;9.128;2022-12-19T02:39:43;52.07;;;27.30;;
2480;SDS011;57396;48.742;9.128;2022-12-19T02:42:18;54.60;;;29.70;;
2480;SDS011;57396;48.742;9.128;2022-12-19T02:44:47;54.60;;;28.10;;
2480;SDS011;57396;48.742;9.128;2022-12-19T02:47:14;53.57;;;29.77;;
2480;SDS011;57396;48.742;9.128;2022-12-19T02:49:39;50.80;;;27.37;;
2480;SDS011;57396;48.742;9.128;2022-12-19T02:52:09;55.00;;;28.87;;
2480;SDS011;57396;48.742;9.128;2022-12-19T02:54:34;57.13;;;26.87;;
2480;SDS011;57396;48.742;9.128;2022-12-19T02:57:07;55.23;;;28.37;;
2480;SDS011;57396;48.742;9.128;2022-12-19T03:04:47;52.37;;;26.93;;
2480;SDS011;57396;48.742;9.128;2022-12-19T03:07:40;51.03;;;25.97;;
2480;SDS011;57396;48.742;9.128;2022-12-19T03:12:43;45.93;;;24.50;;
2480;SDS011;57396;48.742;9.128;2022-12-19T03:15:12;52.57;;;26.37;;
2480;SDS011;57396;48.742;9.128;2022-12-19T03:17:38;50.93;;;26.67;;
2480;SDS011;57396;48.742;9.128;2022-12-19T03:20:08;49.27;;;24.90;;
2480;SDS011;57396;48.742;9.128;2022-12-19T03:22:38;47.30;;;24.17;;
2480;SDS011;57396;48.742;9.128;2022-12-19T03:25:03;44.40;;;24.17;;
2480;SDS011;57396;48.742;9.128;2022-12-19T03:27:29;54.07;;;26.40;;
2480;SDS011;57396;48.742;9.128;2022-12-19T03:30:05;43.93;;;24.00;;
2480;SDS011;57396;48.742;9.128;2022-12-19T03:32:32;47.90;;;24.20;;
2480;SDS011;57396;48.742;9.128;2022-12-19T03:35:01;49.37;;;23.53;;
2480;SDS011;57396;48.742;9.128;2022-12-19T03:37:29;46.70;;;24.17;;
2480;SDS011;57396;48.742;9.128;2022-12-19T03:39:59;49.80;;;25.37;;
2480;SDS011;57396;48.742;9.128;2022-12-19T03:42:27;53.90;;;26.40;;
2480;SDS011;57396;48.742;9.128;2022-12-19T03:45:12;49.00;;;23.63;;
2480;SDS011;57396;48.742;9.128;2022-12-19T03:47:46;45.00;;;24.63;;
2480;SDS011;57396;48.742;9.128;2022-12-19T03:50:14;47.40;;;24.40;;
2480;SDS011;57396;48.742;9.128;2022-12-19T03:52:55;49.37;;;24.83;;
2480;SDS011;57396;48.742;9.128;2022-12-19T03:55:36;48.67;;;24.43;;
2480;SDS011;57396;48.742;9.128;2022-12-19T03:58:08;48.77;;;25.70;;
2480;SDS011;57396;48.742;9.128;2022-12-19T04:00:41;44.33;;;25.03;;
2480;SDS011;57396;48.742;9.128;2022-12-19T04:03:11;50.00;;;24.90;;
2480;SDS011;57396;48.742;9.128;2022-12-19T04:05:37;43.30;;;24.90;;
2480;SDS011;57396;48.742;9.128;2022-12-19T04:08:05;46.20;;;25.30;;
2480;SDS011;57396;48.742;9.128;2022-12-19T04:10:33;47.43;;;25.50;;
2480;SDS011;57396;48.742;9.128;2022-12-19T04:13:05;47.53;;;25.83;;
2480;SDS011;57396;48.742;9.128;2022-12-19T04:15:39;43.33;;;23.33;;
2480;SDS011;57396;48.742;9.128;2022-12-19T04:18:12;47.83;;;24.30;;
2480;SDS011;57396;48.742;9.128;2022-12-19T04:20:39;45.83;;;22.47;;
2480;SDS011;57396;48.742;9.128;2022-12-19T04:23:12;42.77;;;22.70;;
2480;SDS011;57396;48.742;9.128;2022-12-19T04:25:42;41.20;;;21.03;;
2480;SDS011;57396;48.742;9.128;2022-12-19T04:28:15;40.47;;;22.00;;
2480;SDS011;57396;48.742;9.128;2022-12-19T04:30:43;43.33;;;22.23;;
2480;SDS011;57396;48.742;9.128;2022-12-19T04:33:09;44.60;;;22.13;;
2480;SDS011;57396;48.742;9.128;2022-12-19T04:35:35;45.10;;;22.33;;
2480;SDS011;57396;48.742;9.128;2022-12-19T04:38:00;39.33;;;21.27;;
2480;SDS011;57396;48.742;9.128;2022-12-19T04:40:26;42.87;;;21.83;;
2480;SDS011;57396;48.742;9.128;2022-12-19T04:42:52;36.87;;;21.57;;
2480;SDS011;57396;48.742;9.128;2022-12-19T04:45:17;44.77;;;21.87;;
2480;SDS011;57396;48.742;9.128;2022-12-19T04:47:42;43.97;;;22.27;;
2480;SDS011;57396;48.742;9.128;2022-12-19T04:50:08;43.80;;;24.37;;
2480;SDS011;57396;48.742;9.128;2022-12-19T04:52:34;39.73;;;21.03;;
2480;SDS011;57396;48.742;9.128;2022-12-19T04:54:59;37.80;;;21.63;;
2480;SDS011;57396;48.742;9.128;2022-12-19T04:57:27;37.97;;;20.70;;
2480;SDS011;57396;48.742;9.128;2022-12-19T04:59:54;40.53;;;22.47;;
2480;SDS011;57396;48.742;9.128;2022-12-19T05:02:19;42.60;;;21.80;;
2480;SDS011;57396;48.742;9.128;2022-12-19T05:04:44;43.87;;;21.40;;
2480;SDS011;57396;48.742;9.128;2022-12-19T05:07:10;41.70;;;22.60;;
2480;SDS011;57396;48.742;9.128;2022-12-19T05:09:37;43.50;;;23.00;;
2480;SDS011;57396;48.742;9.128;2022-12-19T05:12:02;41.10;;;22.00;;
2480;SDS011;57396;48.742;9.128;2022-12-19T05:14:28;43.87;;;22.10;;
2480;SDS011;57396;48.742;9.128;2022-12-19T05:16:53;42.10;;;21.90;;
2480;SDS011;57396;48.742;9.128;2022-12-19T05:19:19;44.93;;;22.17;;
2480;SDS011;57396;48.742;9.128;2022-12-19T05:21:45;36.57;;;19.80;;
2480;SDS011;57396;48.742;9.128;2022-12-19T05:24:10;39.77;;;20.13;;
2480;SDS011;57396;48.742;9.128;2022-12-19T05:26:35;36.27;;;19.90;;
2480;SDS011;57396;48.742;9.128;2022-12-19T05:29:01;40.63;;;20.60;;
2480;SDS011;57396;48.742;9.128;2022-12-19T05:31:26;41.40;;;21.93;;
2480;SDS011;57396;48.742;9.128;2022-12-19T05:33:52;48.57;;;23.50;;
2480;SDS011;57396;48.742;9.128;2022-12-19T05:36:17;46.67;;;23.33;;
2480;SDS011;57396;48.742;9.128;2022-12-19T05:38:44;42.43;;;22.80;;
2480;SDS011;57396;48.742;9.128;2022-12-19T05:41:16;50.20;;;24.00;;
2480;SDS011;57396;48.742;9.128;2022-12-19T05:43:43;44.57;;;22.90;;
2480;SDS011;57396;48.742;9.128;2022-12-19T05:46:10;44.30;;;21.60;;
2480;SDS011;57396;48.742;9.128;2022-12-19T05:48:35;42.97;;;22.33;;
2480;SDS011;57396;48.742;9.128;2022-12-19T05:51:01;36.00;;;20.53;;
2480;SDS011;57396;48.742;9.128;2022-12-19T05:53:27;35.90;;;18.87;;
2480;SDS011;57396;48.742;9.128;2022-12-19T05:58:47;37.60;;;19.67;;
2480;SDS011;57396;48.742;9.128;2022-12-19T06:03:42;39.73;;;21.17;;
2480;SDS011;57396;48.742;9.128;2022-12-19T06:06:09;39.00;;;20.30;;
2480;SDS011;57396;48.742;9.128;2022-12-19T06:08:37;35.83;;;20.10;;
2480;SDS011;57396;48.742;9.128;2022-12-19T06:11:03;37.93;;;20.30;;
2480;SDS011;57396;48.742;9.128;2022-12-19T06:13:30;40.70;;;21.03;;
2480;SDS011;57396;48.742;9.128;2022-12-19T06:15:56;41.13;;;21.37;;
2480;SDS011;57396;48.742;9.128;2022-12-19T06:18:23;44.93;;;21.60;;
2480;SDS011;57396;48.742;9.128;2022-12-19T06:20:58;40.60;;;19.80;;
2480;SDS011;57396;48.742;9.128;2022-12-19T06:23:24;37.93;;;20.07;;
2480;SDS011;57396;48.742;9.128;2022-12-19T06:25:50;38.90;;;20.20;;
2480;SDS011;57396;48.742;9.128;2022-12-19T06:28:15;41.60;;;18.87;;
2480;SDS011;57396;48.742;9.128;2022-12-19T06:30:41;40.40;;;21.17;;
2480;SDS011;57396;48.742;9.128;2022-12-19T06:33:06;40.00;;;19.00;;
2480;SDS011;57396;48.742;9.128;2022-12-19T06:35:32;40.27;;;21.60;;
2480;SDS011;57396;48.742;9.128;2022-12-19T06:37:57;35.20;;;19.20;;
2480;SDS011;57396;48.742;9.128;2022-12-19T06:40:22;41.93;;;19.83;;
2480;SDS011;57396;48.742;9.128;2022-12-19T06:43:07;35.33;;;19.27;;
2480;SDS011;57396;48.742;9.128;2022-12-19T06:45:32;38.37;;;19.23;;
2480;SDS011;57396;48.742;9.128;2022-12-19T06:47:58;45.33;;;20.10;;
2480;SDS011;57396;48.742;9.128;2022-12-19T06:50:23;32.90;;;18.20;;
2480;SDS011;57396;48.742;9.128;2022-12-19T06:52:49;34.90;;;19.27;;
2480;SDS011;57396;48.742;9.128;2022-12-19T06:55:15;41.10;;;20.23;;
2480;SDS011;57396;48.742;9.128;2022-12-19T06:57:40;31.73;;;18.17;;
2480;SDS011;57396;48.742;9.128;2022-12-19T07:00:11;37.53;;;17.60;;
2480;SDS011;57396;48.742;9.128;2022-12-19T07:02:37;38.47;;;18.43;;
2480;SDS011;57396;48.742;9.128;2022-12-19T07:05:07;37.93;;;20.27;;
2480;SDS011;57396;48.742;9.128;2022-12-19T07:07:33;30.83;;;17.10;;
2480;SDS011;57396;48.742;9.128;2022-12-19T07:09:59;36.77;;;18.27;;
2480;SDS011;57396;48.742;9.128;2022-12-19T07:12:25;33.33;;;18.67;;
2480;SDS011;57396;48.742;9.128;2022-12-19T07:14:50;34.83;;;18.60;;
2480;SDS011;57396;48.742;9.128;2022-12-19T07:17:16;32.97;;;18.90;;
2480;SDS011;57396;48.742;9.128;2022-12-19T07:19:42;40.27;;;19.70;;
2480;SDS011;57396;48.742;9.128;2022-12-19T07:22:07;36.03;;;19.20;;
2480;SDS011;57396;48.742;9.128;2022-12-19T07:24:33;33.30;;;18.10;;
2480;SDS011;57396;48.742;9.128;2022-12-19T07:26:59;46.20;;;19.10;;
2480;SDS011;57396;48.742;9.128;2022-12-19T07:29:24;38.03;;;19.10;;
2480;SDS011;57396;48.742;9.128;2022-12-19T07:31:50;36.80;;;19.23;;
2480;SDS011;57396;48.742;9.128;2022-12-19T07:34:16;29.20;;;17.07;;
2480;SDS011;57396;48.742;9.128;2022-12-19T07:36:41;30.50;;;17.27;;
2480;SDS011;57396;48.742;9.128;2022-12-19T07:39:07;30.77;;;17.17;;
2480;SDS011;57396;48.742;9.128;2022-12-19T07:41:34;34.53;;;18.40;;
2480;SDS011;57396;48.742;9.128;2022-12-19T07:44:01;34.10;;;18.20;;
2480;SDS011;57396;48.742;9.128;2022-12-19T07:46:27;36.20;;;18.30;;
2480;SDS011;57396;48.742;9.128;2022-12-19T07:48:56;34.37;;;19.20;;
2480;SDS011;57396;48.742;9.128;2022-12-19T07:51:22;34.27;;;18.67;;
2480;SDS011;57396;48.742;9.128;2022-12-19T07:53:47;31.23;;;18.30;;
2480;SDS011;57396;48.742;9.128;2022-12-19T07:56:13;35.13;;;19.50;;
2480;SDS011;57396;48.742;9.128;2022-12-19T07:58:39;34.37;;;18.47;;
2480;SDS011;57396;48.742;9.128;2022-12-19T08:01:04;33.43;;;19.17;;
2480;SDS011;57396;48.742;9.128;2022-12-19T08:03:30;29.00;;;16.70;;
2480;SDS011;57396;48.742;9.128;2022-12-19T08:05:59;30.93;;;17.80;;
2480;SDS011;57396;48.742;9.128;2022-12-19T08:08:26;35.33;;;18.53;;
2480;SDS011;57396;48.742;9.128;2022-12-19T08:10:52;32.60;;;17.70;;
2480;SDS011;57396;48.742;9.128;2022-12-19T08:13:17;37.57;;;18.60;;
2480;SDS011;57396;48.742;9.128;2022-12-19T08:15:43;36.27;;;18.33;;
2480;SDS011;57396;48.742;9.128;2022-12-19T08:18:08;36.97;;;18.03;;
2480;SDS011;57396;48.742;9.128;2022-12-19T08:20:34;36.73;;;17.23;;
2480;SDS011;57396;48.742;9.128;2022-12-19T08:22:59;32.53;;;17.60;;
2480;SDS011;57396;48.742;9.128;2022-12-19T08:25:25;31.60;;;17.30;;
2480;SDS011;57396;48.742;9.128;2022-12-19T08:27:52;36.47;;;19.30;;
2480;SDS011;57396;48.742;9.128;2022-12-19T08:30:17;32.30;;;18.23;;
2480;SDS011;57396;48.742;9.128;2022-12-19T08:32:43;34.37;;;19.13;;
2480;SDS011;57396;48.742;9.128;2022-12-19T08:35:09;29.17;;;17.07;;
2480;SDS011;57396;48.742;9.128;2022-12-19T08:37:34;36.30;;;18.20;;
2480;SDS011;57396;48.742;9.128;2022-12-19T08:40:00;31.60;;;18.10;;
2480;SDS011;57396;48.742;9.128;2022-12-19T08:42:25;33.83;;;17.83;;
2480;SDS011;57396;48.742;9.128;2022-12-19T08:44:51;35.33;;;17.93;;
2480;SDS011;57396;48.742;9.128;2022-12-19T08:47:16;34.47;;;19.00;;
2480;SDS011;57396;48.742;9.128;2022-12-19T08:49:41;35.27;;;17.57;;
2480;SDS011;57396;48.742;9.128;2022-12-19T08:52:07;35.67;;;19.03;;
2480;SDS011;57396;48.742;9.128;2022-12-19T08:54:32;36.33;;;20.07;;
2480;SDS011;57396;48.742;9.128;2022-12-19T08:56:58;35.93;;;19.80;;
2480;SDS011;57396;48.742;9.128;2022-12-19T08:59:23;38.60;;;21.80;;
2480;SDS011;57396;48.742;9.128;2022-12-19T09:01:51;39.40;;;22.20;;
2480;SDS011;57396;48.742;9.128;2022-12-19T09:04:16;37.10;;;21.40;;
2480;SDS011;57396;48.742;9.128;2022-12-19T09:06:42;35.03;;;20.67;;
2480;SDS011;57396;48.742;9.128;2022-12-19T09:09:07;32.50;;;19.60;;
2480;SDS011;57396;48.742;9.128;2022-12-19T09:11:33;41.13;;;20.33;;
2480;SDS011;57396;48.742;9.128;2022-12-19T09:13:58;32.40;;;19.30;;
2480;SDS011;57396;48.742;9.128;2022-12-19T09:16:24;38.57;;;20.03;;
2480;SDS011;57396;48.742;9.128;2022-12-19T09:18:52;36.30;;;20.40;;
2480;SDS011;57396;48.742;9.128;2022-12-19T09:21:20;37.10;;;20.97;;
2480;SDS011;57396;48.742;9.128;2022-12-19T09:23:48;30.00;;;19.90;;
2480;SDS011;57396;48.742;9.128;2022-12-19T09:26:14;34.67;;;20.47;;
2480;SDS011;57396;48.742;9.128;2022-12-19T09:28:40;33.67;;;20.53;;
2480;SDS011;57396;48.742;9.128;2022-12-19T09:31:07;33.63;;;19.37;;
2480;SDS011;57396;48.742;9.128;2022-12-19T09:33:35;29.30;;;17.30;;
2480;SDS011;57396;48.742;9.128;2022-12-19T09:36:01;32.73;;;17.20;;
2480;SDS011;57396;48.742;9.128;2022-12-19T09:38:27;32.73;;;16.73;;
2480;SDS011;57396;48.742;9.128;2022-12-19T09:43:29;31.90;;;17.90;;
2480;SDS011;57396;48.742;9.128;2022-12-19T09:46:15;28.63;;;17.00;;
2480;SDS011;57396;48.742;9.128;2022-12-19T09:48:44;28.50;;;15.77;;
2480;SDS011;57396;48.742;9.128;2022-12-19T09:51:12;31.83;;;19.65;;
2480;SDS011;57396;48.742;9.128;2022-12-19T09:53:44;32.80;;;18.17;;
2480;SDS011;57396;48.742;9.128;2022-12-19T09:56:18;27.97;;;16.87;;
2480;SDS011;57396;48.742;9.128;2022-12-19T09:58:52;25.60;;;16.43;;
2480;SDS011;57396;48.742;9.128;2022-12-19T10:01:20;25.75;;;17.00;;
2480;SDS011;57396;48.742;9.128;2022-12-19T10:06:36;23.47;;;13.97;;
2480;SDS011;57396;48.742;9.128;2022-12-19T10:09:02;28.70;;;16.17;;
2480;SDS011;57396;48.742;9.128;2022-12-19T10:14:21;22.00;;;14.60;;
2480;SDS011;57396;48.742;9.128;2022-12-19T10:22:28;22.53;;;14.90;;
2480;SDS011;57396;48.742;9.128;2022-12-19T10:25:04;27.43;;;16.40;;
2480;SDS011;57396;48.742;9.128;2022-12-19T10:27:52;26.50;;;16.80;;
2480;SDS011;57396;48.742;9.128;2022-12-19T10:30:46;28.00;;;18.10;;
2480;SDS011;57396;48.742;9.128;2022-12-19T10:33:21;30.40;;;21.10;;
2480;SDS011;57396;48.742;9.128;2022-12-19T10:35:55;31.17;;;20.47;;
2480;SDS011;57396;48.742;9.128;2022-12-19T10:46:33;37.13;;;21.87;;
2480;SDS011;57396;48.742;9.128;2022-12-19T10:49:08;25.20;;;16.10;;
2480;SDS011;57396;48.742;9.128;2022-12-19T10:51:37;28.33;;;15.90;;
2480;SDS011;57396;48.742;9.128;2022-12-19T10:54:03;27.23;;;16.33;;
2480;SDS011;57396;48.742;9.128;2022-12-19T10:56:29;24.00;;;13.50;;
2480;SDS011;57396;48.742;9.128;2022-12-19T10:58:55;22.70;;;12.63;;
2480;SDS011;57396;48.742;9.128;2022-12-19T11:01:24;21.20;;;14.20;;
2480;SDS011;57396;48.742;9.128;2022-12-19T11:04:37;21.60;;;14.23;;
2480;SDS011;57396;48.742;9.128;2022-12-19T11:09:40;36.20;;;19.00;;
2480;SDS011;57396;48.742;9.128;2022-12-19T11:14:32;36.60;;;16.77;;
2480;SDS011;57396;48.742;9.128;2022-12-19T11:16:58;42.00;;;18.20;;
2480;SDS011;57396;48.742;9.128;2022-12-19T11:22:01;22.30;;;12.90;;
2480;SDS011;57396;48.742;9.128;2022-12-19T11:24:50;22.53;;;14.30;;
2480;SDS011;57396;48.742;9.128;2022-12-19T11:30:05;18.10;;;12.77;;
2480;SDS011;57396;48.742;9.128;2022-12-19T11:32:36;19.70;;;13.00;;
2480;SDS011;57396;48.742;9.128;2022-12-19T11:35:15;26.43;;;12.60;;
2480;SDS011;57396;48.742;9.128;2022-12-19T11:40:35;21.70;;;11.73;;
2480;SDS011;57396;48.742;9.128;2022-12-19T11:48:56;19.63;;;12.93;;
2480;SDS011;57396;48.742;9.128;2022-12-19T11:51:31;24.20;;;12.80;;
2480;SDS011;57396;48.742;9.128;2022-12-19T11:54:14;21.03;;;13.23;;
2480;SDS011;57396;48.742;9.128;2022-12-19T11:56:43;23.87;;;12.73;;
2480;SDS011;57396;48.742;9.128;2022-12-19T11:59:16;21.53;;;12.30;;
2480;SDS011;57396;48.742;9.128;2022-12-19T12:07:33;28.77;;;13.17;;
2480;SDS011;57396;48.742;9.128;2022-12-19T12:12:33;22.50;;;12.33;;
2480;SDS011;57396;48.742;9.128;2022-12-19T12:18:26;25.03;;;11.40;;
2480;SDS011;57396;48.742;9.128;2022-12-19T12:21:05;18.47;;;12.40;;
2480;SDS011;57396;48.742;9.128;2022-12-19T12:23:47;23.13;;;12.80;;
2480;SDS011;57396;48.742;9.128;2022-12-19T12:26:31;19.77;;;13.70;;
2480;SDS011;57396;48.742;9.128;2022-12-19T12:43:16;19.83;;;13.40;;
2480;SDS011;57396;48.742;9.128;2022-12-19T12:45:50;20.17;;;11.00;;
2480;SDS011;57396;48.742;9.128;2022-12-19T12:50:44;15.03;;;10.10;;
2480;SDS011;57396;48.742;9.128;2022-12-19T12:53:11;16.10;;;10.23;;
2480;SDS011;57396;48.742;9.128;2022-12-19T12:55:40;17.83;;;9.80;;
2480;SDS011;57396;48.742;9.128;2022-12-19T13:01:17;17.33;;;10.60;;
2480;SDS011;57396;48.742;9.128;2022-12-19T13:03:58;13.07;;;9.67;;
2480;SDS011;57396;48.742;9.128;2022-12-19T13:06:35;20.10;;;9.60;;
2480;SDS011;57396;48.742;9.128;2022-12-19T13:16:58;17.10;;;9.47;;
2480;SDS011;57396;48.742;9.128;2022-12-19T13:19:25;18.60;;;11.03;;
2480;SDS011;57396;48.742;9.128;2022-12-19T13:27:30;22.73;;;11.37;;
2480;SDS011;57396;48.742;9.128;2022-12-19T13:35:03;17.90;;;11.57;;
2480;SDS011;57396;48.742;9.128;2022-12-19T13:51:14;17.20;;;11.53;;
2480;SDS011;57396;48.742;9.128;2022-12-19T13:53:40;19.50;;;12.07;;
2480;SDS011;57396;48.742;9.128;2022-12-19T13:58:58;19.13;;;10.50;;
2480;SDS011;57396;48.742;9.128;2022-12-19T14:01:26;18.10;;;11.90;;
2480;SDS011;57396;48.742;9.128;2022-12-19T14:03:56;16.90;;;11.30;;
2480;SDS011;57396;48.742;9.128;2022-12-19T14:06:24;19.83;;;11.57;;
2480;SDS011;57396;48.742;9.128;2022-12-19T14:08:53;18.70;;;11.40;;
2480;SDS011;57396;48.742;9.128;2022-12-19T14:11:21;22.63;;;13.20;;
2480;SDS011;57396;48.742;9.128;2022-12-19T14:13:50;16.87;;;11.10;;
2480;SDS011;57396;48.742;9.128;2022-12-19T14:16:37;21.73;;;12.17;;
2480;SDS011;57396;48.742;9.128;2022-12-19T14:19:03;19.53;;;12.00;;
2480;SDS011;57396;48.742;9.128;2022-12-19T14:21:39;17.60;;;11.47;;
2480;SDS011;57396;48.742;9.128;2022-12-19T14:26:33;18.27;;;10.73;;
2480;SDS011;57396;48.742;9.128;2022-12-19T14:29:00;30.03;;;12.40;;
2480;SDS011;57396;48.742;9.128;2022-12-19T14:31:28;19.50;;;10.73;;
2480;SDS011;57396;48.742;9.128;2022-12-19T14:33:54;17.07;;;11.30;;
2480;SDS011;57396;48.742;9.128;2022-12-19T14:36:28;26.80;;;12.07;;
2480;SDS011;57396;48.742;9.128;2022-12-19T14:38:55;15.40;;;10.30;;
2480;SDS011;57396;48.742;9.128;2022-12-19T14:44:14;17.23;;;11.30;;
2480;SDS011;57396;48.742;9.128;2022-12-19T14:46:40;16.73;;;10.77;;
2480;SDS011;57396;48.742;9.128;2022-12-19T14:49:22;17.00;;;11.07;;
2480;SDS011;57396;48.742;9.128;2022-12-19T14:51:54;24.53;;;11.63;;
2480;SDS011;57396;48.742;9.128;2022-12-19T14:54:20;18.80;;;11.37;;
2480;SDS011;57396;48.742;9.128;2022-12-19T14:56:56;15.10;;;10.77;;
2480;SDS011;57396;48.742;9.128;2022-12-19T14:59:31;17.40;;;11.63;;
2480;SDS011;57396;48.742;9.128;2022-12-19T15:02:00;25.10;;;11.80;;
2480;SDS011;57396;48.742;9.128;2022-12-19T15:04:47;23.70;;;12.60;;
2480;SDS011;57396;48.742;9.128;2022-12-19T15:07:17;18.93;;;12.30;;
2480;SDS011;57396;48.742;9.128;2022-12-19T15:09:50;21.50;;;12.30;;
2480;SDS011;57396;48.742;9.128;2022-12-19T15:12:24;19.13;;;12.07;;
2480;SDS011;57396;48.742;9.128;2022-12-19T15:17:46;17.47;;;11.83;;
2480;SDS011;57396;48.742;9.128;2022-12-19T15:20:13;18.77;;;11.30;;
2480;SDS011;57396;48.742;9.128;2022-12-19T15:22:38;16.23;;;11.20;;
2480;SDS011;57396;48.742;9.128;2022-12-19T15:25:04;26.40;;;12.30;;
2480;SDS011;57396;48.742;9.128;2022-12-19T15:27:30;30.27;;;12.93;;
2480;SDS011;57396;48.742;9.128;2022-12-19T15:29:56;17.50;;;12.27;;
2480;SDS011;57396;48.742;9.128;2022-12-19T15:32:21;18.10;;;12.30;;
2480;SDS011;57396;48.742;9.128;2022-12-19T15:34:47;22.13;;;12.37;;
2480;SDS011;57396;48.742;9.128;2022-12-19T15:37:14;17.53;;;11.90;;
2480;SDS011;57396;48.742;9.128;2022-12-19T15:39:41;16.20;;;10.87;;
2480;SDS011;57396;48.742;9.128;2022-12-19T15:42:17;16.23;;;11.33;;
2480;SDS011;57396;48.742;9.128;2022-12-19T15:44:47;18.00;;;12.90;;
2480;SDS011;57396;48.742;9.128;2022-12-19T15:47:29;18.08;;;12.27;;
2480;SDS011;57396;48.742;9.128;2022-12-19T15:49:56;17.10;;;11.87;;
2480;SDS011;57396;48.742;9.128;2022-12-19T15:52:25;23.50;;;12.60;;
2480;SDS011;57396;48.742;9.128;2022-12-19T15:54:51;19.13;;;12.77;;
2480;SDS011;57396;48.742;9.128;2022-12-19T15:57:36;15.77;;;11.67;;
2480;SDS011;57396;48.742;9.128;2022-12-19T16:00:06;24.30;;;13.27;;
2480;SDS011;57396;48.742;9.128;2022-12-19T16:02:36;16.57;;;11.87;;
2480;SDS011;57396;48.742;9.128;2022-12-19T16:05:02;22.80;;;13.37;;
2480;SDS011;57396;48.742;9.128;2022-12-19T16:07:28;17.77;;;12.17;;
2480;SDS011;57396;48.742;9.128;2022-12-19T16:09:54;20.33;;;12.50;;
2480;SDS011;57396;48.742;9.128;2022-12-19T16:12:21;20.33;;;11.70;;
2480;SDS011;57396;48.742;9.128;2022-12-19T16:14:52;21.47;;;12.50;;
2480;SDS011;57396;48.742;9.128;2022-12-19T16:17:22;19.55;;;13.68;;
2480;SDS011;57396;48.742;9.128;2022-12-19T16:19:49;22.77;;;14.87;;
2480;SDS011;57396;48.742;9.128;2022-12-19T16:22:20;19.55;;;13.10;;
2480;SDS011;57396;48.742;9.128;2022-12-19T16:24:47;18.60;;;13.05;;
2480;SDS011;57396;48.742;9.128;2022-12-19T16:27:16;17.37;;;11.83;;
2480;SDS011;57396;48.742;9.128;2022-12-19T16:29:46;17.53;;;12.70;;
2480;SDS011;57396;48.742;9.128;2022-12-19T16:32:12;18.07;;;11.80;;
2480;SDS011;57396;48.742;9.128;2022-12-19T16:34:37;17.77;;;12.93;;
2480;SDS011;57396;48.742;9.128;2022-12-19T16:37:02;20.30;;;12.50;;
2480;SDS011;57396;48.742;9.128;2022-12-19T16:39:28;18.87;;;12.90;;
2480;SDS011;57396;48.742;9.128;2022-12-19T16:41:53;17.80;;;12.50;;
2480;SDS011;57396;48.742;9.128;2022-12-19T16:44:20;16.90;;;10.93;;
2480;SDS011;57396;48.742;9.128;2022-12-19T16:46:46;28.37;;;17.20;;
2480;SDS011;57396;48.742;9.128;2022-12-19T16:49:13;27.07;;;15.10;;
2480;SDS011;57396;48.742;9.128;2022-12-19T16:51:41;33.00;;;21.10;;
2480;SDS011;57396;48.742;9.128;2022-12-19T16:54:07;44.80;;;24.47;;
2480;SDS011;57396;48.742;9.128;2022-12-19T16:56:55;48.10;;;27.20;;
2480;SDS011;57396;48.742;9.128;2022-12-19T16:59:20;44.17;;;23.30;;
2480;SDS011;57396;48.742;9.128;2022-12-19T17:01:49;59.80;;;31.48;;
2480;SDS011;57396;48.742;9.128;2022-12-19T17:04:16;57.23;;;29.33;;
2480;SDS011;57396;48.742;9.128;2022-12-19T17:06:43;46.00;;;23.57;;
2480;SDS011;57396;48.742;9.128;2022-12-19T17:09:12;22.83;;;15.17;;
2480;SDS011;57396;48.742;9.128;2022-12-19T17:11:39;27.43;;;16.07;;